createdAt,value
2023-03-30T16:01:58.316Z,103.40
2023-03-30T16:03:40.913Z,95.20
2023-03-30T16:05:21.138Z,101.25
2023-03-30T16:06:53.158Z,79.80
2023-03-30T16:08:26.681Z,87.25
2023-03-30T16:09:59.052Z,82.50
2023-03-30T16:11:31.288Z,84.50
2023-03-30T16:13:03.575Z,86.00
2023-03-30T16:14:35.450Z,88.75
2023-03-30T16:16:08.167Z,87.25
2023-03-30T16:17:40.267Z,96.40
2023-03-30T16:19:13.000Z,96.50
2023-03-30T16:20:44.972Z,91.50
2023-03-30T16:22:16.998Z,81.25
2023-03-30T16:23:48.958Z,93.50
2023-03-30T16:25:24.236Z,85.50
2023-03-30T16:27:04.185Z,70.00
2023-03-30T16:28:36.144Z,72.75
2023-03-30T16:30:36.250Z,91.75
2023-03-30T16:32:08.527Z,95.00
2023-03-30T16:33:40.662Z,86.25
2023-03-30T16:35:13.165Z,86.50
2023-03-30T16:36:45.709Z,78.50
2023-03-30T16:38:18.134Z,70.50
2023-03-30T16:39:50.432Z,55.25
2023-03-30T16:41:23.313Z,59.25
2023-03-30T16:42:55.400Z,52.25
2023-03-30T16:44:27.657Z,51.75
2023-03-30T16:45:59.885Z,49.50
2023-03-30T16:47:32.390Z,68.00
2023-03-30T16:49:04.440Z,71.00
2023-03-30T16:51:07.172Z,73.25
2023-03-30T16:52:39.300Z,57.25
2023-03-30T16:54:23.024Z,70.50
2023-03-30T16:56:02.441Z,70.75
2023-03-30T16:57:34.724Z,58.50
2023-03-30T16:59:11.323Z,63.75
2023-03-30T17:00:49.045Z,52.00
2023-03-30T17:02:21.416Z,58.25
2023-03-30T17:03:53.508Z,68.75
2023-03-30T17:05:25.760Z,69.00
2023-03-30T17:06:57.975Z,75.50
2023-03-30T17:08:30.121Z,79.50
2023-03-30T17:10:26.991Z,81.25
2023-03-30T17:11:59.295Z,84.75
2023-03-30T17:13:32.294Z,83.75
2023-03-30T17:15:04.918Z,96.20
2023-03-30T17:16:37.474Z,95.20
2023-03-30T17:18:24.815Z,106.60
2023-03-30T17:19:57.054Z,114.75
2023-03-30T17:21:28.869Z,109.25
2023-03-30T17:23:00.898Z,111.50
2023-03-30T17:24:32.748Z,121.00
2023-03-30T17:26:04.988Z,123.50
2023-03-30T17:27:38.208Z,125.00
2023-03-30T17:29:10.441Z,124.00
2023-03-30T17:30:42.518Z,123.75
2023-03-30T17:32:14.930Z,129.25
2023-03-30T17:33:47.800Z,128.50
2023-03-30T17:35:19.794Z,139.00
2023-03-30T17:36:51.959Z,138.00
2023-03-30T17:38:24.350Z,149.25
2023-03-30T17:39:56.372Z,152.50
2023-03-30T17:41:28.683Z,152.00
2023-03-30T17:43:01.100Z,156.00
2023-03-30T17:44:34.103Z,154.25
2023-03-30T17:46:06.487Z,141.50
2023-03-30T17:47:39.080Z,139.00
2023-03-30T17:49:16.052Z,151.50
2023-03-30T17:50:50.021Z,152.50
2023-03-30T17:52:22.192Z,157.50
2023-03-30T17:53:54.109Z,165.25
2023-03-30T17:55:27.579Z,162.00
2023-03-30T17:56:59.508Z,155.00
2023-03-30T17:58:34.205Z,405.60
2023-03-30T18:00:23.558Z,290.50
2023-03-30T18:01:55.753Z,240.75
2023-03-30T18:03:29.512Z,214.75
2023-03-30T18:05:01.708Z,215.33
2023-03-30T18:06:33.722Z,213.33
2023-03-30T18:08:06.375Z,208.33
2023-03-30T18:09:38.268Z,187.33
2023-03-30T18:11:10.364Z,196.67
2023-03-30T18:12:42.254Z,175.00
2023-03-30T18:14:14.170Z,185.33
2023-03-30T18:15:48.553Z,181.00
2023-03-30T18:17:20.788Z,175.00
2023-03-30T18:18:52.682Z,188.00
2023-03-30T18:20:36.456Z,193.00
2023-03-30T18:22:08.351Z,176.00
2023-03-30T18:23:40.388Z,184.25
2023-03-30T18:25:19.095Z,189.50
2023-03-30T18:27:02.599Z,214.00
2023-03-30T18:28:35.137Z,248.00
2023-03-30T18:30:26.216Z,245.33
2023-03-30T18:31:58.131Z,188.00
2023-03-30T18:33:30.168Z,173.00
2023-03-30T18:35:02.250Z,170.25
2023-03-30T18:36:34.271Z,171.75
2023-03-30T18:38:06.374Z,164.25
2023-03-30T18:39:38.921Z,169.00
2023-03-30T18:41:13.541Z,147.25
2023-03-30T18:42:48.256Z,164.75
2023-03-30T18:44:20.643Z,156.50
2023-03-30T18:45:53.012Z,167.50
2023-03-30T18:47:26.447Z,157.75
2023-03-30T18:48:58.498Z,158.75
2023-03-30T18:50:40.594Z,159.25
2023-03-30T18:52:12.483Z,153.75
2023-03-30T18:53:44.826Z,188.33
2023-03-30T18:55:17.047Z,264.50
2023-03-30T18:56:49.850Z,247.00
2023-03-30T18:58:23.473Z,221.33
2023-03-30T18:59:56.837Z,209.00
2023-03-30T19:01:28.875Z,187.00
2023-03-30T19:03:01.617Z,183.25
2023-03-30T19:04:34.351Z,168.75
2023-03-30T19:06:10.126Z,160.50
2023-03-30T19:07:42.122Z,157.75
2023-03-30T19:09:14.421Z,150.25
2023-03-30T19:10:47.639Z,162.25
2023-03-30T19:12:19.709Z,151.50
2023-03-30T19:13:52.351Z,146.25
2023-03-30T19:15:34.724Z,153.00
2023-03-30T19:17:06.826Z,153.75
2023-03-30T19:18:39.160Z,146.50
2023-03-30T19:20:11.873Z,149.75
2023-03-30T19:21:46.274Z,141.25
2023-03-30T19:23:18.447Z,200.33
2023-03-30T19:24:50.831Z,194.33
2023-03-30T19:26:23.582Z,162.00
2023-03-30T19:28:03.390Z,167.75
2023-03-30T19:29:36.271Z,166.00
2023-03-30T19:31:16.547Z,151.75
2023-03-30T19:32:49.184Z,150.00
2023-03-30T19:34:21.156Z,152.00
2023-03-30T19:35:53.159Z,142.00
2023-03-30T19:37:25.950Z,147.75
2023-03-30T19:38:58.522Z,144.50
2023-03-30T19:40:30.527Z,140.50
2023-03-30T19:42:02.442Z,134.50
2023-03-30T19:43:34.439Z,146.75
2023-03-30T19:45:06.579Z,141.75
2023-03-30T19:46:38.946Z,142.50
2023-03-30T19:48:10.988Z,157.25
2023-03-30T19:49:43.101Z,149.50
2023-03-30T19:51:15.078Z,149.75
2023-03-30T19:52:48.863Z,247.67
2023-03-30T19:54:21.013Z,264.25
2023-03-30T19:55:52.967Z,203.33
2023-03-30T19:57:24.951Z,179.00
2023-03-30T19:58:58.898Z,178.00
2023-03-30T20:00:32.782Z,181.50
2023-03-30T20:02:04.967Z,175.25
2023-03-30T20:03:36.940Z,177.00
2023-03-30T20:05:10.460Z,170.50
2023-03-30T20:06:42.444Z,168.00
2023-03-30T20:08:23.345Z,165.25
2023-03-30T20:09:56.468Z,167.25
2023-03-30T20:11:28.444Z,162.50
2023-03-30T20:13:00.494Z,165.00
2023-03-30T20:14:32.746Z,150.75
2023-03-30T20:16:06.015Z,154.50
2023-03-30T20:17:38.553Z,142.00
2023-03-30T20:19:22.508Z,150.50
2023-03-30T20:21:03.563Z,146.00
2023-03-30T20:22:36.380Z,167.50
2023-03-30T20:24:08.704Z,156.25
2023-03-30T20:25:46.590Z,157.50
2023-03-30T20:27:18.517Z,162.25
2023-03-30T20:28:50.523Z,156.75
2023-03-30T20:30:22.430Z,160.50
2023-03-30T20:31:54.353Z,159.25
2023-03-30T20:33:27.497Z,159.25
2023-03-30T20:35:00.834Z,156.00
2023-03-30T20:36:32.783Z,142.25
2023-03-30T20:38:05.933Z,155.50
2023-03-30T20:39:37.843Z,154.00
2023-03-30T20:41:11.704Z,161.00
2023-03-30T20:42:48.205Z,161.25
2023-03-30T20:44:30.015Z,153.25
2023-03-30T20:46:09.700Z,152.25
2023-03-30T20:59:48.089Z,189.00
2023-03-30T21:01:28.385Z,191.33
2023-03-30T21:03:00.635Z,179.00
2023-03-30T21:04:33.952Z,165.50
2023-03-30T21:06:09.286Z,179.75
2023-03-30T21:07:42.437Z,178.25
2023-03-30T21:09:14.412Z,169.75
2023-03-30T21:10:46.412Z,163.75
2023-03-30T21:12:18.306Z,169.50
2023-03-30T21:13:54.665Z,168.50
2023-03-30T21:15:26.689Z,164.00
2023-03-30T21:16:58.639Z,169.25
2023-03-30T21:18:30.748Z,161.50
2023-03-30T21:20:02.708Z,158.75
2023-03-30T21:21:35.422Z,156.75
2023-03-30T21:23:07.336Z,159.50
2023-03-30T21:24:39.297Z,150.50
2023-03-30T21:26:11.774Z,159.75
2023-03-30T21:27:43.687Z,150.00
2023-03-30T21:29:15.687Z,146.75
2023-03-30T21:30:50.912Z,168.50
2023-03-30T21:32:22.850Z,154.50
2023-03-30T21:33:54.784Z,153.75
2023-03-30T21:35:26.687Z,156.00
2023-03-30T21:36:58.683Z,155.50
2023-03-30T21:38:30.846Z,152.00
2023-03-30T21:40:03.438Z,152.50
2023-03-30T21:41:35.399Z,148.75
2023-03-30T21:43:07.180Z,154.75
2023-03-30T21:44:39.103Z,143.75
2023-03-30T21:46:12.957Z,149.00
2023-03-30T21:47:44.883Z,149.25
2023-03-30T21:49:17.286Z,148.75
2023-03-30T21:50:49.482Z,149.25
2023-03-30T21:52:21.435Z,148.25
2023-03-30T21:53:53.955Z,145.00
2023-03-30T21:55:25.744Z,145.00
2023-03-30T21:56:57.670Z,134.50
2023-03-30T21:58:29.654Z,137.25
2023-03-30T22:00:01.523Z,143.50
2023-03-30T22:01:33.416Z,138.75
2023-03-30T22:03:05.712Z,134.75
2023-03-30T22:04:37.675Z,131.00
2023-03-30T22:06:10.556Z,134.25
2023-03-30T22:07:42.424Z,117.25
2023-03-30T22:09:14.392Z,129.75
2023-03-30T22:10:46.531Z,126.00
2023-03-30T22:12:18.371Z,102.25
2023-03-30T22:13:50.793Z,120.00
2023-03-30T22:15:22.625Z,116.50
2023-03-30T22:16:54.806Z,107.25
2023-03-30T22:18:27.019Z,125.00
2023-03-30T22:19:58.893Z,109.50
2023-03-30T22:21:34.609Z,109.50
2023-03-30T22:23:06.866Z,107.40
2023-03-30T22:24:38.860Z,98.20
2023-03-30T22:26:11.619Z,98.40
2023-03-30T22:27:45.204Z,95.20
2023-03-30T22:29:20.960Z,93.80
2023-03-30T22:30:52.974Z,100.60
2023-03-30T22:32:24.907Z,75.60
2023-03-30T22:33:57.032Z,162.00
